AirNav   ATP
 
 623 users online  

4TX2 Stage Coach Hills Airport
Westlake, Texas, USA

GOING TO WESTLAKE?


FAA INFORMATION EFFECTIVE 04 JANUARY 2018

Location

FAA Identifier: 4TX2
Lat/Long: 32-58-00.4490N / 097-14-01.0530W
32-58.007483N / 097-14.017550W
32.9667914 / -97.2336258
(estimated)
Elevation: 684 ft. / 208 m (estimated)
Variation: 07E (1985)
From city: 2 miles SW of WESTLAKE, TX
Time zone: UTC -6 (UTC -5 during Daylight Saving Time)
Zip code: 76262

Airport Operations

Airport use: Private use. Permission required prior to landing
Activation date: 07/1973
Control tower: no
ARTCC: FORT WORTH CENTER
FSS: FORT WORTH FLIGHT SERVICE STATION
Attendance: UNATNDD
Wind indicator: yes
Segmented circle: yes
Lights: FOR LIRL RWY 17/35 CALL 817-430-1987.

Airport Communications

WX ASOS at AFW (5 nm W): PHONE 817-491-6188
WX ASOS at DFW (11 nm SE): PHONE 972-615-2608
WX ASOS at FTW (11 nm SW): PHONE 817-740-3346
WX ASOS at DTO (14 nm N): 119.325 (940-383-8457)
WX AWOS-3P at GPM (19 nm SE): 118.475 (972-606-1433)
WX ASOS at GKY (19 nm S): 127.375 (817-557-0251)
WX AWOS-3 at ADS (20 nm E): PHONE 972-386-4855

Nearby radio navigation aids

VOR radial/distance  VOR name  Freq  Var
FUZr324/5.4RANGER VORTAC115.7006E
TTTr295/11.4MAVERICK VOR/DME113.1006E
CVEr279/17.2COWBOY VOR/DME116.2006E

 
NDB name  Hdg/Dist  Freq  Var  ID
MUFIN050/8.336508EFT ..-. -
MESQUITE282/36.724803EPQF .--. --.- ..-.
MELISA238/36.942103EVLY ...- .-.. -.--

Airport Services

Airframe service: NONE
Powerplant service: NONE

Runway Information

Runway 17/35

Dimensions: 2700 x 90 ft. / 823 x 27 m
Surface: turf
Runway edge lights: low intensity
RUNWAY 17  RUNWAY 35
Traffic pattern: rightleft

Airport Ownership and Management from official FAA records

Ownership: Privately-owned
Owner: STEVE THORNTON
5920 STEVE COURT
ROANOKE, TX 76262
Phone 817-430-1987
Manager: AIRPORT BOARD
5920 STEVE COURT
ROANOKE, TX 76262
Phone 817-430-1987

Airport Operational Statistics

Aircraft based on the field: 26
Single engine airplanes: 24
Multi engine airplanes: 2
    

Additional Remarks

TREES ALONG WESTERN EDGE OF RY.

Instrument Procedures

There are no published instrument procedures at 4TX2.

Some nearby airports with instrument procedures:

KAFW - Fort Worth Alliance Airport (5 nm W)
KDFW - Dallas-Fort Worth International Airport (11 nm SE)
KFTW - Fort Worth Meacham International Airport (11 nm SW)
4T2 - Kenneth Copeland Airport (13 nm W)
KDTO - Denton Enterprise Airport (14 nm N)
KNFW - Fort Worth Naval Air Station JRB (Carswell Field) Airport (16 nm SW)
KGPM - Grand Prairie Municipal Airport (19 nm SE)
KGKY - Arlington Municipal Airport (19 nm S)
KADS - Addison Airport (20 nm E)
 
Loc | Ops | Rwys | IFR | FBO | Links
Com | Nav | Svcs | Stats | Notes

Lake Texoma Jet Center
AirBoss

 
Area around 4TX2 (Stage Coach Hills Airport)
 
Road maps at: MapQuest Bing Google
 
Aerial photo
WARNING: Photo may not be current or correct
Aerial photo of 4TX2 (Stage Coach Hills Airport)
Do you have a better or more recent aerial photo of Stage Coach Hills Airport that you would like to share? If so, please send us your photo.

 
Sectional chart

 
Airport distance calculator
Flying to Stage Coach Hills Airport? Find the distance to fly.

From to 4TX2

Sunrise and sunset
Times for 20-Jan-2018
 Local
(UTC-6)
 Zulu
(UTC)
Morning civil twilight07:0513:05
Sunrise07:3213:32
Sunset17:4923:49
Evening civil twilight18:1500:15

Current date and time
Zulu (UTC)  21-Jan-2018 04:37:23
Local (UTC-6)  20-Jan-2018 22:37:23
 
METAR
KAFW 
4nm W 
210353Z 17014G22KT 10SM FEW015 15/13 A2989 RMK AO2 SLP118 T01500128
KFTW 
10nm SW 
210353Z 17015KT 10SM CLR 16/13 A2990 RMK AO2 PK WND 17026/0258 SLP121 T01560133
KDFW 
12nm E 
210407Z 17016G22KT 10SM SCT015 16/13 A2990 RMK AO2 T01610133
KDTO 
14nm N 
210353Z 17012KT 10SM FEW017 15/13 A2990 RMK AO2 SLP120 T01500128
KNFW 
16nm SW 
210352Z AUTO 17015G26KT 10SM CLR 16/12 A2990 RMK AO2 PK WND 17026/0352 SLP110 T01560122 $
KGPM 
18nm SE 
210415Z AUTO 16009KT 10SM SCT015 15/12 A2994 RMK AO2 T01510121
KGKY 
19nm S 
210417Z AUTO 17011G19KT 10SM BKN016 15/13 A2993 RMK AO2 T01500133 $
TAF
KAFW 
4nm W 
210303Z 2103/2124 16016G26KT P6SM FEW018 FM210400 18015KT P6SM BKN015 FM211700 20017KT P6SM VCSH BKN025 FM212000 22017G27KT P6SM BKN040 FM212200 23018G28KT P6SM SCT050
KFTW 
10nm SW 
210303Z 2103/2124 16016G26KT P6SM FEW018 FM210400 18015KT P6SM BKN015 FM211700 20017KT P6SM VCSH BKN025 FM212000 22017G27KT P6SM BKN040 FM212200 23018G28KT P6SM SCT050
KDFW 
12nm E 
210303Z 2103/2206 17018KT P6SM SCT018 FM210400 18017KT P6SM BKN015 FM210800 17015KT 5SM -DZ BR OVC012 FM211700 20020KT P6SM VCSH BKN025 FM212000 22021KT P6SM BKN040 FM212200 23018KT P6SM SCT050 FM220300 25015KT P6SM SKC
KNFW 
16nm SW 
2019/2115 19018G27KT 9999 FEW050 SCT300 520005 QNH2985INS FM210300 18019G28KT 6000 -DZ BR OVC010 WSCONDS 520005 QNH2983INS T24/2021Z T14/2112Z AMD 1930 FN20048
KGKY 
19nm S 
210303Z 2103/2124 16015KT P6SM SCT018 FM210400 16015KT P6SM BKN015 FM210800 17015KT 5SM -DZ BR OVC012 FM211700 20016KT P6SM VCSH BKN025 FM212000 21017KT P6SM BKN040 FM212200 22017KT P6SM SCT050
NOTAMs
Click for the latest NOTAMs
NOTAMs are issued by the DoD/FAA and will open in a separate window not controlled by AirNav.

 

 
 

Would you like to see your business listed on this page?

 If your business provides an interesting product or service to pilots, flight crews, aircraft, or users of the Stage Coach Hills Airport, you should consider listing it here.  To start the listing process, click on the button below
 
Add a business
 

Other Pages about Stage Coach Hills Airport

Update a link
 
Copyright © AirNav, LLC. All rights reserved. Privacy Policy  Contact